createdAt,value
2023-05-25T06:45:21.370Z,99.50
2023-05-25T06:47:49.308Z,99.90
2023-05-25T06:50:18.091Z,99.90
2023-05-25T06:52:46.826Z,99.90
2023-05-25T06:55:14.960Z,99.90
2023-05-25T06:57:44.682Z,99.90
2023-05-25T07:00:14.089Z,99.90
2023-05-25T07:02:43.328Z,99.90
2023-05-25T07:05:11.570Z,99.90
2023-05-25T07:07:39.488Z,99.90
2023-05-25T07:10:08.890Z,99.80
2023-05-25T07:12:37.170Z,99.80
2023-05-25T07:15:05.903Z,99.80
2023-05-25T07:17:33.924Z,99.60
2023-05-25T07:20:04.674Z,99.50
2023-05-25T07:22:32.596Z,99.50
2023-05-25T07:25:00.534Z,99.50
2023-05-25T07:27:28.715Z,99.60
2023-05-25T07:29:56.695Z,99.60
2023-05-25T07:32:24.599Z,99.60
2023-05-25T07:34:52.747Z,99.70
2023-05-25T07:37:22.300Z,99.70
2023-05-25T07:39:50.571Z,99.70
2023-05-25T07:42:21.002Z,99.70
2023-05-25T07:44:50.038Z,99.70
2023-05-25T07:47:17.934Z,99.80
2023-05-25T07:49:45.958Z,99.90
2023-05-25T07:52:13.876Z,99.90
2023-05-25T07:54:43.169Z,99.90
2023-05-25T07:57:12.215Z,99.90
2023-05-25T07:59:40.140Z,99.90
2023-05-25T08:02:08.168Z,99.90
2023-05-25T08:04:37.506Z,99.90
2023-05-25T08:07:05.740Z,99.90
2023-05-25T08:09:33.637Z,99.90
2023-05-25T08:12:23.995Z,99.90
2023-05-25T08:14:50.925Z,99.90
2023-05-25T08:17:18.966Z,99.90
2023-05-25T08:19:46.956Z,99.90
2023-05-25T08:22:14.996Z,99.90
2023-05-25T08:24:42.996Z,99.90
2023-05-25T08:27:12.343Z,99.90
2023-05-25T08:29:40.223Z,99.90
2023-05-25T08:32:08.634Z,99.90
2023-05-25T08:34:36.517Z,99.90
2023-05-25T08:37:06.074Z,99.90
2023-05-25T08:39:35.001Z,99.90
2023-05-25T08:42:03.738Z,99.90
2023-05-25T08:44:33.001Z,99.90
2023-05-25T08:47:06.769Z,99.90
2023-05-25T08:49:38.120Z,99.90
2023-05-25T08:52:06.804Z,99.90
2023-05-25T08:54:37.764Z,99.90
2023-05-25T08:57:11.559Z,99.90
2023-05-25T08:59:47.765Z,99.90
2023-05-25T09:02:24.858Z,99.90
2023-05-25T09:04:53.298Z,99.90
2023-05-25T09:07:22.659Z,99.90
2023-05-25T09:09:51.282Z,99.90
2023-05-25T09:12:20.135Z,99.90
2023-05-25T09:14:49.618Z,99.90
2023-05-25T09:17:20.007Z,99.90
2023-05-25T09:19:48.497Z,99.90
2023-05-25T09:22:17.102Z,99.90
2023-05-25T09:24:45.957Z,99.90
2023-05-25T09:27:18.304Z,99.90
2023-05-25T09:29:49.540Z,99.90
2023-05-25T09:32:18.532Z,99.90
2023-05-25T09:34:47.166Z,99.90
2023-05-25T09:37:19.058Z,99.90
2023-05-25T09:39:48.205Z,99.90
2023-05-25T09:42:16.335Z,99.90
2023-05-25T09:44:45.076Z,99.90
2023-05-25T09:47:16.809Z,99.90
2023-05-25T09:49:47.491Z,99.90
2023-05-25T09:52:16.399Z,99.90
2023-05-25T09:54:45.829Z,99.90
2023-05-25T09:57:13.833Z,99.90
2023-05-25T09:59:43.057Z,99.90
2023-05-25T10:02:11.011Z,99.90
2023-05-25T10:04:41.401Z,99.90
2023-05-25T10:07:09.913Z,99.90
2023-05-25T10:09:42.166Z,99.90
2023-05-25T10:12:10.259Z,99.90
2023-05-25T10:14:39.255Z,99.90
2023-05-25T10:17:11.229Z,99.90
2023-05-25T10:19:45.884Z,99.90
2023-05-25T10:22:17.404Z,99.90
2023-05-25T10:24:55.097Z,99.90
2023-05-25T10:27:27.142Z,99.90
2023-05-25T10:29:57.763Z,99.90
2023-05-25T10:32:27.171Z,99.90
2023-05-25T10:34:58.127Z,99.90
2023-05-25T10:37:28.424Z,99.90
2023-05-25T10:40:00.402Z,99.90
2023-05-25T10:42:29.666Z,99.90
2023-05-25T10:44:58.070Z,99.90
2023-05-25T10:47:26.598Z,99.90
2023-05-25T10:49:57.901Z,99.90
2023-05-25T10:52:29.061Z,99.90
2023-05-25T10:54:58.178Z,99.90
2023-05-25T10:57:27.317Z,99.90
2023-05-25T11:00:01.546Z,99.90
2023-05-25T11:02:30.366Z,99.90
2023-05-25T11:05:32.203Z,99.90
2023-05-25T11:08:02.567Z,99.90
2023-05-25T11:10:44.301Z,99.90
2023-05-25T11:13:34.046Z,99.90
2023-05-25T11:16:24.711Z,99.90
2023-05-25T11:18:54.884Z,99.90
2023-05-25T11:21:24.980Z,99.90
2023-05-25T11:24:00.315Z,99.90
2023-05-25T11:26:30.352Z,99.70
2023-05-25T11:29:00.244Z,99.50
2023-05-25T11:31:34.199Z,99.40
2023-05-25T11:34:06.185Z,99.40
2023-05-25T11:36:36.125Z,99.70
2023-05-25T11:39:17.254Z,99.80
2023-05-25T11:41:50.169Z,99.70
2023-05-25T11:44:28.202Z,99.90
2023-05-25T11:46:58.092Z,99.90
2023-05-25T11:49:26.429Z,99.90
2023-05-25T11:51:54.902Z,99.90
2023-05-25T11:54:25.944Z,99.90
2023-05-25T11:56:57.270Z,99.90
2023-05-25T11:59:28.155Z,99.90
2023-05-25T12:01:57.808Z,99.90
2023-05-25T12:04:26.070Z,99.90
2023-05-25T12:06:54.332Z,99.90
2023-05-25T12:09:24.751Z,99.90
2023-05-25T12:11:53.472Z,99.90
2023-05-25T12:14:22.368Z,99.90
2023-05-25T12:16:51.193Z,99.80
2023-05-25T12:19:20.077Z,99.90
2023-05-25T12:21:51.167Z,99.90
2023-05-25T12:24:19.854Z,99.90
2023-05-25T12:26:57.381Z,99.90
2023-05-25T12:29:26.334Z,99.90
2023-05-25T12:31:54.393Z,99.90
2023-05-25T12:34:22.702Z,99.90
2023-05-25T12:36:52.224Z,99.90
2023-05-25T12:39:35.358Z,99.90
2023-05-25T12:42:05.371Z,99.90
2023-05-25T12:44:35.373Z,99.90
2023-05-25T12:47:15.302Z,99.90
2023-05-25T12:49:44.948Z,99.90
2023-05-25T12:52:32.248Z,99.90
2023-05-25T12:55:01.751Z,99.90
2023-05-25T12:57:36.889Z,99.90
2023-05-25T13:00:05.516Z,99.90
2023-05-25T13:02:33.409Z,99.90
2023-05-25T13:05:02.047Z,99.90
2023-05-25T13:07:30.395Z,99.80
2023-05-25T13:09:58.440Z,99.80
2023-05-25T13:12:26.342Z,99.80
2023-05-25T13:14:55.528Z,99.80
2023-05-25T13:17:23.416Z,99.80
2023-05-25T13:19:51.301Z,99.90
2023-05-25T13:22:19.705Z,99.90
2023-05-25T13:24:47.735Z,99.80
2023-05-25T13:27:15.641Z,99.90
2023-05-25T13:29:43.476Z,99.90
2023-05-25T13:32:12.714Z,99.90
2023-05-25T13:34:40.748Z,99.70
2023-05-25T13:37:08.677Z,99.40
2023-05-25T13:39:37.066Z,99.20
2023-05-25T13:42:05.187Z,98.80
2023-05-25T13:44:33.953Z,98.90
2023-05-25T13:47:01.834Z,98.90
2023-05-25T13:49:31.033Z,98.80
2023-05-25T13:51:58.881Z,98.70
2023-05-25T13:54:26.784Z,98.20
2023-05-25T13:56:54.844Z,98.10
2023-05-25T13:59:23.166Z,98.00
2023-05-25T14:01:53.607Z,97.90
2023-05-25T14:04:23.165Z,97.60
2023-05-25T14:06:52.441Z,97.60
2023-05-25T14:09:20.729Z,97.70
2023-05-25T14:11:48.601Z,98.40
2023-05-25T14:14:30.020Z,96.30
2023-05-25T14:16:58.226Z,93.50
2023-05-25T14:19:26.162Z,93.70
2023-05-25T14:24:26.761Z,90.00
2023-05-25T14:26:54.739Z,86.60
2023-05-25T14:29:22.646Z,83.80
2023-05-25T14:31:50.844Z,82.50
2023-05-25T14:34:18.781Z,81.40
2023-05-25T14:36:46.660Z,80.20
2023-05-25T14:39:17.386Z,81.00
2023-05-25T14:41:45.715Z,83.30
2023-05-25T14:44:13.548Z,85.10
2023-05-25T14:46:41.703Z,85.10
2023-05-25T14:49:09.630Z,85.00
2023-05-25T14:51:37.970Z,83.60
2023-05-25T14:54:07.225Z,84.10
2023-05-25T14:56:36.599Z,83.80
2023-05-25T14:59:04.492Z,81.80
2023-05-25T15:01:32.385Z,82.10
2023-05-25T15:04:00.367Z,81.00
2023-05-25T15:06:28.589Z,80.60
2023-05-25T15:08:56.441Z,80.10
2023-05-25T15:11:24.407Z,80.00
2023-05-25T15:13:53.785Z,81.40
2023-05-25T15:16:21.808Z,81.00
2023-05-25T15:18:50.983Z,79.90
2023-05-25T22:13:48.283Z,95.70
2023-05-25T22:16:16.270Z,96.00
2023-05-25T22:18:44.487Z,96.30
2023-05-25T22:21:12.548Z,96.50
2023-05-25T22:23:40.521Z,96.60
2023-05-25T22:26:08.559Z,96.70
2023-05-25T22:28:36.511Z,96.70
2023-05-25T22:31:06.159Z,96.80
2023-05-25T22:33:34.442Z,96.80
2023-05-25T22:36:02.397Z,96.80
2023-05-25T22:38:30.321Z,96.80
2023-05-25T22:40:58.340Z,96.80
2023-05-25T22:43:27.026Z,96.80
2023-05-25T22:45:55.072Z,96.80
2023-05-25T22:48:24.589Z,96.80
2023-05-25T22:50:52.679Z,96.80
2023-05-25T22:53:21.150Z,96.80
2023-05-25T22:55:49.452Z,96.80
2023-05-25T22:58:17.862Z,96.90
2023-05-25T23:00:46.000Z,96.90
2023-05-25T23:03:14.265Z,96.90
2023-05-25T23:05:43.933Z,96.90
2023-05-25T23:08:12.259Z,96.90
2023-05-25T23:10:50.573Z,96.90
2023-05-25T23:16:05.362Z,97.00
2023-05-25T23:18:36.307Z,97.00
2023-05-25T23:21:05.868Z,97.10
2023-05-25T23:23:33.968Z,97.20
2023-05-25T23:26:07.865Z,97.20
2023-05-25T23:28:43.090Z,97.20
2023-05-25T23:31:49.418Z,97.20
2023-05-25T23:34:23.876Z,97.20
2023-05-25T23:37:01.521Z,97.30
2023-05-25T23:39:29.659Z,97.30
2023-05-25T23:42:07.877Z,97.40
2023-05-25T23:44:40.810Z,97.40
